createdAt,value
2018-06-30T10:09:30.548Z,32.3
2018-06-30T10:10:33.286Z,32.7
2018-06-30T10:11:36.037Z,32.7
2018-06-30T10:12:39.121Z,32.7
2018-06-30T10:13:42.057Z,32.7
2018-06-30T10:14:44.797Z,32.7
2018-06-30T10:15:47.548Z,32.7
2018-06-30T10:16:50.037Z,32.3
2018-06-30T10:17:52.551Z,32.7
2018-06-30T10:18:55.295Z,32.7
2018-06-30T10:19:58.038Z,32.3
2018-06-30T10:21:01.691Z,32.7
2018-06-30T10:22:04.278Z,32.3
2018-06-30T10:23:07.013Z,31.8
2018-06-30T10:24:09.773Z,32.3
2018-06-30T10:25:12.529Z,32.3
2018-06-30T10:26:15.271Z,32.7
2018-06-30T10:27:18.005Z,31.8
2018-06-30T10:28:20.737Z,32.3
2018-06-30T10:29:23.476Z,32.3
2018-06-30T10:30:26.226Z,32.3
2018-06-30T10:31:28.965Z,31.8
2018-06-30T10:32:31.449Z,32.3
2018-06-30T10:33:34.190Z,32.3
2018-06-30T10:34:36.948Z,32.3
2018-06-30T10:35:39.688Z,32.3
2018-06-30T10:36:42.430Z,32.3
2018-06-30T10:37:45.164Z,31.8
2018-06-30T10:38:47.920Z,31.8
2018-06-30T10:39:50.381Z,32.3
2018-06-30T10:40:52.859Z,31.8
2018-06-30T10:41:55.608Z,32.3
2018-06-30T10:42:58.353Z,32.3
2018-06-30T10:44:00.828Z,31.8
2018-06-30T10:45:03.574Z,32.3
2018-06-30T10:46:06.036Z,32.3
2018-06-30T10:47:08.496Z,31.8
2018-06-30T10:48:11.249Z,31.3
2018-06-30T10:49:13.997Z,32.3
2018-06-30T10:50:16.748Z,31.8
2018-06-30T10:51:19.225Z,31.3
2018-06-30T10:52:21.980Z,31.8
2018-06-30T10:53:24.718Z,31.8
2018-06-30T10:54:27.479Z,31.3
2018-06-30T10:55:30.641Z,31.8
2018-06-30T10:56:33.626Z,31.3
2018-06-30T10:57:36.128Z,31.3
2018-06-30T10:58:38.600Z,31.8
2018-06-30T10:59:41.350Z,31.3
2018-06-30T11:00:44.102Z,31.8
2018-06-30T11:01:46.875Z,31.8
2018-06-30T11:02:49.634Z,31.8
2018-06-30T11:03:52.263Z,31.3
2018-06-30T11:04:55.032Z,31.3
2018-06-30T11:05:58.270Z,31.3
2018-06-30T11:07:01.201Z,31.3
2018-06-30T11:08:03.945Z,31.8
2018-06-30T11:09:06.447Z,31.8
2018-06-30T11:10:09.198Z,31.8
2018-06-30T11:11:11.939Z,31.3
2018-06-30T11:12:14.699Z,31.8
2018-06-30T11:13:17.443Z,31.8
2018-06-30T11:14:20.184Z,31.8
2018-06-30T11:15:22.932Z,31.8
2018-06-30T11:16:25.688Z,32.3
2018-06-30T11:17:28.589Z,31.8
2018-06-30T11:18:31.370Z,31.8
2018-06-30T11:19:34.103Z,32.3
2018-06-30T11:20:36.861Z,32.3
2018-06-30T11:21:39.332Z,31.8
2018-06-30T11:22:42.099Z,31.8
2018-06-30T11:23:44.858Z,32.3
2018-06-30T11:24:47.351Z,32.3
2018-06-30T11:25:50.149Z,32.3
2018-06-30T11:26:52.902Z,32.3
2018-06-30T11:27:55.645Z,32.3
2018-06-30T11:28:58.393Z,32.3
2018-06-30T11:30:00.871Z,31.8
2018-06-30T11:31:03.640Z,32.3
2018-06-30T11:32:06.390Z,32.3
2018-06-30T11:33:09.162Z,32.3
2018-06-30T11:34:11.896Z,32.3
2018-06-30T11:35:14.648Z,31.8
2018-06-30T11:36:17.407Z,32.3
2018-06-30T11:37:19.888Z,31.8
2018-06-30T11:38:22.631Z,32.3
2018-06-30T11:39:25.367Z,31.8
2018-06-30T11:40:28.247Z,31.8
2018-06-30T11:41:30.817Z,32.3
2018-06-30T11:42:33.304Z,32.3
2018-06-30T11:43:35.783Z,32.3
2018-06-30T11:44:38.537Z,32.3
2018-06-30T11:45:41.314Z,31.8
2018-06-30T11:46:44.058Z,32.3
2018-06-30T11:47:46.794Z,31.8
2018-06-30T11:48:49.299Z,31.8
2018-06-30T11:49:51.831Z,31.8
2018-06-30T11:50:54.583Z,32.3
2018-06-30T11:51:57.373Z,31.8
2018-06-30T11:52:59.861Z,32.3
2018-06-30T11:54:02.604Z,31.8
2018-06-30T11:55:05.097Z,32.3
2018-06-30T11:56:07.839Z,31.8
2018-06-30T11:57:10.597Z,31.8
2018-06-30T11:58:13.347Z,31.8
2018-06-30T11:59:16.153Z,31.8
2018-06-30T12:00:18.883Z,31.3
2018-06-30T12:01:21.647Z,31.8
2018-06-30T12:02:24.413Z,31.3
2018-06-30T12:03:27.429Z,31.8
2018-06-30T12:04:30.253Z,32.3
2018-06-30T12:05:33.008Z,31.8
2018-06-30T12:06:35.751Z,31.8
2018-06-30T12:07:38.496Z,31.3
2018-06-30T12:08:41.248Z,31.8
2018-06-30T12:09:43.437Z,31.8
2018-06-30T12:10:45.918Z,31.8
2018-06-30T12:11:48.648Z,31.8
2018-06-30T12:12:51.112Z,31.8
2018-06-30T12:13:53.856Z,31.3
2018-06-30T12:14:56.634Z,31.8
2018-06-30T12:15:59.381Z,31.3
2018-06-30T12:17:01.863Z,31.8
2018-06-30T12:18:04.595Z,31.3
2018-06-30T12:19:07.368Z,31.8
2018-06-30T12:20:10.117Z,31.8
2018-06-30T12:21:12.612Z,31.3
2018-06-30T12:22:15.109Z,31.3
2018-06-30T12:23:17.848Z,31.3
2018-06-30T12:24:20.608Z,31.3
2018-06-30T12:25:23.342Z,31.3
2018-06-30T12:26:26.114Z,31.8
2018-06-30T12:27:28.847Z,31.8
2018-06-30T12:28:31.588Z,31.3
2018-06-30T12:29:34.328Z,31.3
2018-06-30T12:30:37.064Z,31.3
2018-06-30T12:31:39.817Z,30.8
2018-06-30T12:32:42.580Z,31.3
2018-06-30T12:33:45.343Z,31.3
2018-06-30T12:34:48.075Z,31.8
2018-06-30T12:35:50.831Z,31.3
2018-06-30T12:36:53.326Z,31.3
2018-06-30T12:37:56.069Z,30.8
2018-06-30T12:38:58.818Z,30.8
2018-06-30T12:40:01.560Z,31.3
2018-06-30T12:41:04.318Z,30.8
2018-06-30T12:42:07.070Z,30.8
2018-06-30T12:43:09.818Z,30.8
2018-06-30T12:44:12.557Z,30.8
2018-06-30T12:45:15.049Z,30.8
2018-06-30T12:46:17.789Z,30.8
2018-06-30T12:47:20.522Z,31.3
2018-06-30T12:48:23.275Z,30.8
2018-06-30T12:49:25.788Z,31.3
2018-06-30T12:50:28.530Z,31.3
2018-06-30T12:51:31.284Z,31.3
2018-06-30T12:52:34.021Z,31.3
2018-06-30T12:53:36.521Z,31.3
2018-06-30T12:54:40.139Z,31.3
2018-06-30T12:55:43.181Z,31.3
2018-06-30T12:56:45.688Z,31.3
2018-06-30T12:57:48.172Z,31.3
2018-06-30T12:58:50.933Z,31.3
2018-06-30T12:59:53.669Z,31.8
2018-06-30T13:00:56.148Z,31.3
2018-06-30T13:01:58.911Z,31.3
2018-06-30T13:03:01.410Z,31.3
2018-06-30T13:04:03.896Z,31.3
2018-06-30T13:05:06.758Z,31.3
2018-06-30T13:06:09.553Z,31.8
2018-06-30T13:07:12.039Z,32.3
2018-06-30T13:08:14.805Z,31.8
2018-06-30T13:09:18.059Z,31.8
2018-06-30T13:10:21.118Z,31.8
2018-06-30T13:11:23.875Z,32.3
2018-06-30T13:12:26.608Z,31.8
2018-06-30T13:13:29.359Z,31.8
2018-06-30T13:14:32.113Z,31.8
2018-06-30T13:15:34.618Z,31.8
2018-06-30T13:16:37.361Z,31.8
2018-06-30T13:17:40.259Z,31.8
2018-06-30T13:18:43.047Z,31.8
2018-06-30T13:19:45.815Z,31.3
2018-06-30T13:20:48.336Z,31.3
2018-06-30T13:21:51.097Z,31.8
2018-06-30T13:22:53.839Z,32.3
2018-06-30T13:23:56.588Z,32.3
2018-06-30T13:24:59.082Z,31.8
2018-06-30T13:26:01.842Z,31.8
2018-06-30T13:27:04.584Z,31.8
2018-06-30T13:28:07.332Z,31.8
2018-06-30T13:29:10.075Z,31.8
2018-06-30T13:30:12.836Z,32.3
2018-06-30T13:31:15.582Z,32.3
2018-06-30T13:32:18.069Z,31.8
2018-06-30T13:33:20.830Z,31.8
2018-06-30T13:34:23.375Z,31.3
2018-06-30T13:35:26.139Z,31.3
2018-06-30T13:36:28.915Z,31.3
2018-06-30T13:37:31.667Z,31.8
2018-06-30T13:38:34.440Z,31.3
2018-06-30T13:39:37.188Z,31.8
2018-06-30T13:40:40.047Z,32.3
2018-06-30T13:41:42.891Z,31.8
2018-06-30T13:42:45.660Z,31.8
2018-06-30T13:43:48.406Z,31.3
2018-06-30T13:44:51.135Z,31.8
2018-06-30T13:45:53.888Z,31.8
2018-06-30T13:46:56.097Z,31.3
2018-06-30T13:47:58.848Z,31.3
2018-06-30T13:49:01.619Z,31.3
2018-06-30T13:50:04.362Z,31.3
2018-06-30T13:51:06.850Z,31.8
2018-06-30T13:52:09.622Z,31.3
2018-06-30T13:53:12.366Z,31.8
2018-06-30T13:54:14.836Z,31.3
2018-06-30T13:55:17.571Z,31.8
2018-06-30T13:56:20.316Z,31.3
2018-06-30T13:57:23.076Z,31.3
2018-06-30T13:58:25.839Z,31.3
2018-06-30T13:59:28.296Z,30.8
2018-06-30T14:00:31.057Z,31.8
2018-06-30T14:01:33.810Z,31.3
2018-06-30T14:02:36.300Z,31.8
2018-06-30T14:03:38.795Z,30.8
2018-06-30T14:04:41.541Z,31.3
2018-06-30T14:05:44.301Z,31.3
2018-06-30T14:06:46.823Z,31.3
2018-06-30T14:07:49.567Z,30.8
2018-06-30T14:08:52.300Z,31.3
2018-06-30T14:09:55.059Z,31.3
2018-06-30T14:10:57.818Z,31.3
2018-06-30T14:12:00.572Z,31.8
2018-06-30T14:13:03.052Z,31.3
2018-06-30T14:14:05.518Z,31.3
2018-06-30T14:15:08.270Z,31.3
2018-06-30T14:16:11.030Z,31.3
2018-06-30T14:17:13.766Z,30.8
2018-06-30T14:18:16.696Z,31.3
2018-06-30T14:19:19.220Z,30.8
2018-06-30T14:20:21.684Z,31.3
2018-06-30T14:21:24.159Z,30.8
2018-06-30T14:22:26.907Z,30.8
2018-06-30T14:23:30.031Z,30.8
2018-06-30T14:24:32.889Z,30.3
2018-06-30T14:25:35.622Z,30.8
2018-06-30T14:26:38.366Z,30.8
2018-06-30T14:27:40.606Z,30.3
2018-06-30T14:28:43.560Z,30.8
2018-06-30T14:29:46.321Z,30.3
2018-06-30T14:30:49.079Z,30.8
2018-06-30T14:31:51.814Z,30.8
2018-06-30T14:32:54.566Z,30.3
2018-06-30T14:33:57.318Z,30.8
2018-06-30T14:34:59.815Z,30.8
2018-06-30T14:36:02.564Z,30.8
2018-06-30T14:37:05.308Z,31.3
2018-06-30T14:38:08.070Z,31.3
2018-06-30T14:39:10.818Z,30.8
2018-06-30T14:40:13.590Z,30.8
2018-06-30T14:41:16.128Z,31.3
2018-06-30T14:42:18.595Z,30.8
2018-06-30T14:43:21.079Z,30.8
2018-06-30T14:44:23.870Z,31.8
2018-06-30T14:45:26.608Z,31.3
2018-06-30T14:46:29.358Z,31.3
2018-06-30T14:47:32.124Z,31.8
2018-06-30T14:48:34.880Z,31.8
2018-06-30T14:49:37.950Z,31.3
2018-06-30T14:50:40.831Z,31.3
2018-06-30T14:51:43.569Z,31.8
2018-06-30T14:52:46.326Z,31.3
2018-06-30T14:53:48.827Z,31.8
2018-06-30T14:54:51.309Z,31.3
2018-06-30T14:55:54.061Z,31.3
2018-06-30T14:56:56.808Z,31.8
2018-06-30T14:57:59.274Z,31.8
2018-06-30T14:59:02.033Z,31.3
2018-06-30T15:00:04.763Z,31.3
2018-06-30T15:01:07.509Z,31.8
2018-06-30T15:02:10.277Z,31.8
2018-06-30T15:03:13.022Z,31.8
2018-06-30T15:04:15.481Z,31.8
2018-06-30T15:05:18.224Z,31.8
2018-06-30T15:06:21.030Z,31.3
2018-06-30T15:07:23.968Z,31.3
2018-06-30T15:08:26.782Z,31.8
2018-06-30T15:09:29.531Z,31.8
2018-06-30T15:10:32.268Z,31.8
2018-06-30T15:11:35.027Z,31.8
2018-06-30T15:12:37.850Z,31.8
2018-06-30T15:13:40.350Z,31.8
2018-06-30T15:14:43.087Z,31.8
2018-06-30T15:15:45.825Z,31.8
2018-06-30T15:16:48.604Z,31.8
2018-06-30T15:17:51.362Z,31.8
2018-06-30T15:18:54.679Z,31.8
2018-06-30T15:19:56.963Z,31.3
2018-06-30T15:20:59.483Z,31.3
2018-06-30T15:22:02.238Z,31.8
2018-06-30T15:23:05.029Z,31.8
2018-06-30T15:24:07.288Z,31.8
2018-06-30T15:25:10.026Z,31.3
2018-06-30T15:26:12.793Z,31.3
2018-06-30T15:27:15.545Z,32.3
2018-06-30T15:28:18.306Z,31.8
2018-06-30T15:29:21.053Z,31.3
2018-06-30T15:30:24.275Z,31.3
2018-06-30T15:31:27.018Z,31.8
2018-06-30T15:32:29.751Z,31.3
2018-06-30T15:33:32.227Z,31.8
2018-06-30T15:34:34.965Z,31.3
2018-06-30T15:35:37.702Z,31.3
2018-06-30T15:36:40.169Z,31.3
2018-06-30T15:37:42.622Z,31.3
2018-06-30T15:38:45.092Z,31.3
2018-06-30T15:39:47.565Z,31.8
2018-06-30T15:40:50.325Z,31.3
2018-06-30T15:41:52.810Z,31.3
2018-06-30T15:42:55.549Z,31.3
2018-06-30T15:43:58.327Z,31.3
2018-06-30T15:45:01.073Z,31.3
2018-06-30T15:46:03.801Z,31.3
2018-06-30T15:47:06.648Z,31.3
2018-06-30T15:48:08.929Z,31.3
2018-06-30T15:49:11.727Z,31.3
2018-06-30T15:50:14.481Z,31.3
2018-06-30T15:51:17.225Z,31.3
2018-06-30T15:52:19.700Z,30.8
2018-06-30T15:53:22.450Z,31.3
2018-06-30T15:54:25.259Z,30.8
2018-06-30T15:55:27.711Z,31.3
2018-06-30T15:56:30.184Z,31.3
2018-06-30T15:57:32.986Z,31.3
2018-06-30T15:58:35.460Z,30.8
2018-06-30T15:59:38.231Z,31.3
2018-06-30T16:00:40.706Z,30.8
2018-06-30T16:01:43.192Z,30.8
2018-06-30T16:02:45.938Z,30.8
2018-06-30T16:03:48.686Z,31.3
2018-06-30T16:04:51.238Z,31.3
2018-06-30T16:05:53.853Z,30.8
2018-06-30T16:06:56.606Z,31.3
2018-06-30T16:07:59.070Z,31.3
2018-06-30T16:09:01.813Z,31.3
2018-06-30T16:10:05.061Z,31.3
2018-06-30T16:11:07.970Z,30.8
2018-06-30T16:12:10.695Z,31.3
2018-06-30T16:13:13.168Z,30.8
2018-06-30T16:14:15.918Z,30.8
2018-06-30T16:15:18.671Z,30.8
2018-06-30T16:16:21.286Z,30.3
2018-06-30T16:17:23.835Z,30.8
2018-06-30T16:18:26.587Z,30.8
2018-06-30T16:19:29.076Z,30.8
2018-06-30T16:20:31.817Z,30.8
2018-06-30T16:21:34.306Z,30.3
2018-06-30T16:22:37.064Z,30.8
2018-06-30T16:23:39.853Z,30.8
2018-06-30T16:24:42.603Z,30.3
2018-06-30T16:25:45.397Z,30.3
2018-06-30T16:26:48.130Z,30.8
2018-06-30T16:27:50.865Z,30.3
2018-06-30T16:28:53.964Z,30.8
2018-06-30T16:29:56.800Z,30.8
2018-06-30T16:30:59.329Z,30.8
2018-06-30T16:32:02.081Z,30.8
2018-06-30T16:33:04.849Z,30.8
2018-06-30T16:34:07.321Z,30.8
2018-06-30T16:35:09.811Z,30.8
2018-06-30T16:36:12.561Z,31.3
2018-06-30T16:37:15.310Z,31.3
2018-06-30T16:38:17.791Z,31.3
2018-06-30T16:39:20.542Z,31.3
2018-06-30T16:40:23.288Z,31.3
2018-06-30T16:41:26.029Z,30.8
2018-06-30T16:42:28.780Z,31.8
2018-06-30T16:43:31.531Z,31.3
2018-06-30T16:44:34.272Z,31.3
2018-06-30T16:45:37.017Z,31.8
2018-06-30T16:46:39.235Z,31.8
2018-06-30T16:47:41.971Z,31.3
2018-06-30T16:48:44.450Z,31.3
2018-06-30T16:49:47.194Z,31.3
2018-06-30T16:50:49.937Z,31.8
2018-06-30T16:51:52.678Z,31.8
2018-06-30T16:52:55.410Z,31.3
2018-06-30T16:53:58.153Z,31.8
2018-06-30T16:55:00.903Z,31.8
2018-06-30T16:56:03.642Z,31.8
2018-06-30T16:57:06.388Z,31.8
2018-06-30T16:58:09.135Z,31.8
2018-06-30T16:59:11.868Z,31.3
2018-06-30T17:00:14.618Z,31.8
2018-06-30T17:01:17.375Z,31.8
2018-06-30T17:02:20.118Z,31.8
2018-06-30T17:03:22.591Z,31.8
2018-06-30T17:04:25.046Z,31.3
2018-06-30T17:05:27.785Z,31.3
2018-06-30T17:06:30.550Z,31.3
2018-06-30T17:07:33.293Z,31.8
2018-06-30T17:08:36.044Z,31.8
2018-06-30T17:09:38.543Z,31.8
2018-06-30T17:10:41.292Z,31.8
2018-06-30T17:11:44.026Z,31.3
2018-06-30T17:12:46.764Z,31.8
2018-06-30T17:13:49.518Z,31.8
2018-06-30T17:14:52.129Z,31.3
2018-06-30T17:15:54.940Z,31.8
2018-06-30T17:16:57.420Z,31.8
2018-06-30T17:18:00.176Z,31.3
2018-06-30T17:19:02.917Z,31.3
2018-06-30T17:20:06.069Z,31.3
2018-06-30T17:21:08.870Z,31.3
2018-06-30T17:22:11.638Z,31.8
2018-06-30T17:23:14.377Z,31.3
2018-06-30T17:24:17.123Z,31.8
2018-06-30T17:25:19.880Z,31.8
2018-06-30T17:26:23.241Z,31.3
2018-06-30T17:27:26.293Z,31.3
2018-06-30T17:28:28.506Z,31.3
2018-06-30T17:29:31.253Z,31.3
2018-06-30T17:30:34.008Z,31.8
2018-06-30T17:31:36.755Z,31.3
2018-06-30T17:32:39.527Z,31.8
2018-06-30T17:33:42.267Z,31.3
2018-06-30T17:34:44.750Z,31.3
2018-06-30T17:35:47.489Z,30.8
2018-06-30T17:36:50.244Z,31.3
2018-06-30T17:37:52.981Z,31.3
2018-06-30T17:38:55.738Z,31.3
2018-06-30T17:39:58.490Z,30.8
2018-06-30T17:41:00.958Z,31.3
2018-06-30T17:42:03.426Z,31.3
2018-06-30T17:43:06.172Z,31.3
2018-06-30T17:44:08.915Z,31.3
2018-06-30T17:45:11.658Z,31.3
2018-06-30T17:46:14.116Z,31.3
2018-06-30T17:47:16.847Z,30.8
2018-06-30T17:48:19.589Z,30.8
2018-06-30T17:49:22.329Z,31.3
2018-06-30T17:50:25.071Z,31.3
2018-06-30T17:51:27.812Z,31.3
2018-06-30T17:52:30.554Z,31.3
2018-06-30T17:53:33.662Z,31.3
2018-06-30T17:54:36.525Z,31.3
2018-06-30T17:55:39.268Z,30.8
2018-06-30T17:56:42.017Z,30.8
2018-06-30T17:57:44.754Z,31.3
2018-06-30T17:58:47.506Z,30.8
2018-06-30T17:59:50.267Z,31.3
2018-06-30T18:00:53.024Z,30.8
2018-06-30T18:01:55.511Z,30.8
2018-06-30T18:02:58.266Z,30.8
2018-06-30T18:04:01.015Z,30.8
2018-06-30T18:05:03.758Z,31.3
2018-06-30T18:06:06.509Z,30.8
2018-06-30T18:07:09.261Z,30.3
2018-06-30T18:08:11.999Z,30.3
2018-06-30T18:09:14.739Z,30.8
2018-06-30T18:10:18.336Z,30.3
2018-06-30T18:11:21.362Z,30.8
2018-06-30T18:12:24.108Z,30.8
2018-06-30T18:13:26.605Z,30.8
2018-06-30T18:14:29.090Z,30.8
2018-06-30T18:15:31.849Z,30.8
2018-06-30T18:16:35.150Z,30.3
2018-06-30T18:17:37.701Z,30.3
2018-06-30T18:18:40.435Z,30.3
2018-06-30T18:19:42.906Z,30.8
2018-06-30T18:20:45.672Z,30.3
2018-06-30T18:21:48.134Z,30.3
2018-06-30T18:22:51.213Z,30.8
2018-06-30T18:23:54.066Z,30.8
2018-06-30T18:24:56.862Z,30.3
2018-06-30T18:25:59.641Z,30.3
2018-06-30T18:27:02.123Z,30.3
2018-06-30T18:28:04.866Z,30.8
2018-06-30T18:29:07.627Z,30.3
2018-06-30T18:30:10.107Z,30.3
2018-06-30T18:31:12.612Z,30.3
2018-06-30T18:32:15.100Z,30.3
2018-06-30T18:33:17.567Z,30.8
2018-06-30T18:34:20.314Z,30.8
2018-06-30T18:35:22.790Z,30.8
2018-06-30T18:36:25.557Z,31.3
2018-06-30T18:37:28.039Z,30.8
2018-06-30T18:38:30.778Z,31.3
2018-06-30T18:39:33.243Z,31.3
2018-06-30T18:40:35.731Z,31.3
2018-06-30T18:41:38.482Z,30.8
2018-06-30T18:42:41.223Z,30.8
2018-06-30T18:43:43.971Z,30.8
2018-06-30T18:44:46.442Z,31.3
2018-06-30T18:45:49.207Z,31.3
2018-06-30T18:46:51.955Z,31.3
2018-06-30T18:47:54.738Z,31.3
2018-06-30T18:48:57.481Z,31.3
2018-06-30T18:50:00.251Z,31.3
2018-06-30T18:51:02.997Z,31.3
2018-06-30T18:52:05.755Z,31.8
2018-06-30T18:53:07.939Z,31.3
2018-06-30T18:54:10.679Z,31.8
2018-06-30T18:55:13.440Z,31.3
2018-06-30T18:56:16.184Z,31.3
2018-06-30T18:57:18.938Z,31.3
2018-06-30T18:58:22.084Z,31.3
2018-06-30T18:59:24.976Z,30.8
2018-06-30T19:00:27.462Z,30.8
2018-06-30T19:01:30.227Z,31.3
2018-06-30T19:02:32.968Z,31.3
2018-06-30T19:03:35.717Z,31.3
2018-06-30T19:04:38.192Z,31.3
2018-06-30T19:05:40.947Z,31.3
2018-06-30T19:06:43.687Z,31.3
2018-06-30T19:07:46.183Z,31.3
2018-06-30T19:08:48.656Z,31.8
2018-06-30T19:09:51.463Z,31.3
2018-06-30T19:10:53.943Z,31.3
2018-06-30T19:11:56.697Z,31.8
2018-06-30T19:12:59.433Z,31.3
2018-06-30T19:14:01.930Z,31.3
2018-06-30T19:15:04.383Z,31.3
2018-06-30T19:16:07.116Z,30.8
2018-06-30T19:17:09.867Z,31.3
2018-06-30T19:18:12.626Z,31.3
2018-06-30T19:19:15.362Z,31.3
2018-06-30T19:20:18.106Z,31.3
2018-06-30T19:21:21.103Z,31.3
2018-06-30T19:22:23.887Z,31.3
2018-06-30T19:23:26.372Z,31.8
2018-06-30T19:24:29.117Z,30.8
2018-06-30T19:25:31.595Z,30.8
2018-06-30T19:26:34.342Z,31.3
2018-06-30T19:27:37.092Z,30.8
2018-06-30T19:28:39.844Z,31.3
2018-06-30T19:29:42.608Z,31.3
2018-06-30T19:30:45.091Z,31.3
2018-06-30T19:31:47.843Z,30.8
2018-06-30T19:32:50.582Z,30.8
2018-06-30T19:33:53.059Z,31.3
2018-06-30T19:34:55.812Z,31.3
2018-06-30T19:35:58.553Z,31.3
2018-06-30T19:37:01.306Z,30.8
2018-06-30T19:38:04.059Z,30.8
2018-06-30T19:39:06.545Z,30.8
2018-06-30T19:40:09.040Z,31.3
2018-06-30T19:41:11.798Z,30.8
2018-06-30T19:42:14.690Z,30.8
2018-06-30T19:43:17.522Z,31.3
2018-06-30T19:44:19.979Z,30.3
2018-06-30T19:45:22.731Z,30.8
2018-06-30T19:46:25.533Z,30.8
2018-06-30T19:47:28.283Z,30.8
2018-06-30T19:48:30.766Z,30.3
2018-06-30T19:49:33.251Z,30.3
2018-06-30T19:50:35.990Z,30.8
2018-06-30T19:51:38.724Z,30.8
2018-06-30T19:52:41.478Z,31.3
2018-06-30T19:53:44.235Z,30.8
2018-06-30T19:54:46.728Z,30.8
2018-06-30T19:55:49.469Z,30.3
2018-06-30T19:56:52.226Z,30.3
2018-06-30T19:57:54.973Z,30.8
2018-06-30T19:58:57.703Z,30.3
2018-06-30T20:00:00.433Z,30.8
2018-06-30T20:01:03.226Z,30.8
2018-06-30T20:02:05.718Z,30.3
2018-06-30T20:03:08.496Z,30.3
2018-06-30T20:04:11.263Z,30.3
2018-06-30T20:05:14.050Z,30.3
2018-06-30T20:06:16.560Z,30.8
2018-06-30T20:07:19.398Z,30.3
2018-06-30T20:08:22.179Z,30.3
2018-06-30T20:09:24.962Z,30.3
2018-06-30T20:10:27.818Z,30.3
2018-06-30T20:11:30.588Z,30.3
2018-06-30T20:12:33.352Z,29.8
2018-06-30T20:13:36.252Z,30.3
2018-06-30T20:14:39.190Z,29.8
2018-06-30T20:15:41.957Z,29.8
2018-06-30T20:16:44.701Z,29.8
2018-06-30T20:17:47.458Z,30.3
2018-06-30T20:18:50.311Z,30.3
2018-06-30T20:19:52.798Z,29.8
2018-06-30T20:20:55.721Z,29.8
2018-06-30T20:21:58.552Z,30.3
2018-06-30T20:23:01.313Z,30.3
2018-06-30T20:24:04.058Z,29.8
2018-06-30T20:25:06.819Z,30.3
2018-06-30T20:26:09.561Z,30.3
2018-06-30T20:27:12.296Z,30.3
2018-06-30T20:28:15.053Z,30.3
2018-06-30T20:29:17.553Z,30.3
2018-06-30T20:30:20.314Z,30.3
2018-06-30T20:31:23.060Z,30.3
2018-06-30T20:32:25.839Z,30.8
2018-06-30T20:33:28.308Z,30.8
2018-06-30T20:34:31.064Z,30.3
2018-06-30T20:35:33.818Z,30.8
2018-06-30T20:36:36.581Z,30.8
2018-06-30T20:37:39.331Z,30.8
2018-06-30T20:38:41.823Z,30.8
2018-06-30T20:39:45.513Z,30.8
2018-06-30T20:40:48.575Z,31.3
2018-06-30T20:41:51.349Z,30.8
2018-06-30T20:42:54.137Z,31.3
2018-06-30T20:43:56.939Z,31.3
2018-06-30T20:45:00.191Z,31.3
2018-06-30T20:46:02.666Z,31.3
2018-06-30T20:47:05.442Z,30.8
2018-06-30T20:48:08.183Z,31.3
2018-06-30T20:49:10.951Z,31.3
2018-06-30T20:50:13.701Z,31.3
2018-06-30T20:51:16.456Z,30.8
2018-06-30T20:52:19.216Z,31.3
2018-06-30T20:53:21.984Z,31.3
2018-06-30T20:54:24.747Z,31.3
2018-06-30T20:55:27.508Z,30.8
2018-06-30T20:56:30.780Z,31.3
2018-06-30T20:57:33.518Z,31.3
2018-06-30T20:58:36.274Z,31.3
2018-06-30T20:59:39.041Z,31.3
2018-06-30T21:00:41.805Z,31.3
2018-06-30T21:01:45.121Z,31.3
2018-06-30T21:02:47.939Z,31.3
2018-06-30T21:03:50.685Z,31.3
2018-06-30T21:04:53.135Z,31.3
2018-06-30T21:05:55.619Z,30.8
2018-06-30T21:06:58.368Z,31.3
2018-06-30T21:08:01.112Z,31.3
2018-06-30T21:09:03.872Z,31.3
2018-06-30T21:10:06.615Z,31.3
2018-06-30T21:11:09.090Z,30.8
2018-06-30T21:12:11.831Z,30.8
2018-06-30T21:13:14.599Z,30.8
2018-06-30T21:14:17.344Z,31.3
2018-06-30T21:15:19.822Z,30.8
2018-06-30T21:16:22.577Z,30.8
2018-06-30T21:17:25.317Z,30.8
2018-06-30T21:18:28.116Z,30.8
2018-06-30T21:19:30.870Z,31.3
2018-06-30T21:20:33.069Z,31.3
2018-06-30T21:21:35.806Z,31.3
2018-06-30T21:22:38.305Z,31.3
2018-06-30T21:23:41.060Z,30.8
2018-06-30T21:24:43.789Z,31.3
2018-06-30T21:25:46.547Z,31.3
2018-06-30T21:26:49.039Z,31.3
2018-06-30T21:27:51.798Z,31.3
2018-06-30T21:28:54.532Z,30.8
2018-06-30T21:29:57.562Z,30.8
2018-06-30T21:31:00.331Z,30.8
2018-06-30T21:32:03.083Z,31.3
2018-06-30T21:33:05.566Z,30.8
2018-06-30T21:34:08.347Z,30.8
2018-06-30T21:35:11.095Z,31.3
2018-06-30T21:36:13.860Z,30.8
2018-06-30T21:37:16.618Z,30.8
2018-06-30T21:38:19.368Z,30.8
2018-06-30T21:39:21.842Z,31.3
2018-06-30T21:40:24.583Z,30.8
2018-06-30T21:41:27.333Z,30.8
2018-06-30T21:42:30.067Z,30.8
2018-06-30T21:43:32.827Z,30.8
2018-06-30T21:44:35.576Z,30.8
2018-06-30T21:45:38.333Z,30.8
2018-06-30T21:46:41.069Z,30.8
2018-06-30T21:47:43.829Z,30.8
2018-06-30T21:48:46.305Z,30.8
2018-06-30T21:49:49.071Z,30.8
2018-06-30T21:50:52.162Z,31.3
2018-06-30T21:51:54.997Z,31.8
2018-06-30T21:52:57.751Z,30.8
2018-06-30T21:54:00.495Z,30.8
2018-06-30T21:55:03.003Z,31.3
2018-06-30T21:56:05.478Z,31.3
2018-06-30T21:57:08.266Z,31.3
2018-06-30T21:58:11.028Z,31.8
2018-06-30T21:59:13.778Z,31.3
2018-06-30T22:00:16.525Z,31.3
2018-06-30T22:01:19.258Z,31.3
2018-06-30T22:02:22.011Z,31.3
2018-06-30T22:03:24.768Z,31.3
2018-06-30T22:04:27.268Z,31.3
2018-06-30T22:05:30.003Z,31.3
2018-06-30T22:06:32.755Z,31.3
2018-06-30T22:07:35.511Z,31.3
2018-06-30T22:08:38.250Z,31.3
2018-06-30T22:09:40.988Z,31.3
2018-06-30T22:10:44.178Z,32.3
2018-06-30T22:11:47.048Z,31.8
2018-06-30T22:12:49.541Z,31.8
2018-06-30T22:13:52.284Z,31.8
2018-06-30T22:14:55.026Z,31.3
2018-06-30T22:15:57.514Z,31.8
2018-06-30T22:16:59.728Z,31.8
2018-06-30T22:18:02.475Z,31.8
2018-06-30T22:19:05.228Z,31.3
2018-06-30T22:20:07.996Z,31.8
2018-06-30T22:21:10.733Z,31.3
2018-06-30T22:22:13.224Z,31.8
2018-06-30T22:23:15.950Z,31.3
2018-06-30T22:24:18.442Z,31.8
2018-06-30T22:25:21.192Z,31.8
2018-06-30T22:26:24.137Z,31.3
2018-06-30T22:27:26.993Z,31.3
2018-06-30T22:28:29.777Z,31.3
2018-06-30T22:29:32.515Z,31.3
2018-06-30T22:30:34.978Z,31.3
2018-06-30T22:31:37.463Z,31.8
2018-06-30T22:32:40.209Z,31.3
2018-06-30T22:33:42.977Z,31.3
2018-06-30T22:34:45.728Z,31.3
2018-06-30T22:35:48.473Z,31.3
2018-06-30T22:36:51.208Z,31.3
2018-06-30T22:37:53.963Z,30.8
2018-06-30T22:38:56.699Z,31.3
2018-06-30T22:39:59.169Z,31.3
2018-06-30T22:41:01.670Z,31.3
2018-06-30T22:42:04.424Z,30.8
2018-06-30T22:43:07.174Z,30.8
2018-06-30T22:44:09.909Z,30.8
2018-06-30T22:45:12.123Z,31.3
2018-06-30T22:46:14.874Z,31.3
2018-06-30T22:47:17.844Z,30.8
2018-06-30T22:48:20.608Z,30.8
2018-06-30T22:49:23.353Z,30.8
2018-06-30T22:50:26.093Z,31.3
2018-06-30T22:51:28.843Z,31.3
2018-06-30T22:52:31.601Z,31.3
2018-06-30T22:53:34.363Z,31.3
2018-06-30T22:54:37.089Z,30.8
2018-06-30T22:55:39.849Z,30.8
2018-06-30T22:56:42.331Z,30.8
2018-06-30T22:57:45.080Z,30.8
2018-06-30T22:58:47.824Z,30.8
2018-06-30T22:59:50.318Z,30.8
2018-06-30T23:00:53.064Z,30.8
2018-06-30T23:01:55.813Z,30.8
2018-06-30T23:02:58.554Z,30.3
2018-06-30T23:04:01.298Z,30.8
2018-06-30T23:05:04.042Z,30.8
2018-06-30T23:06:06.787Z,31.3
2018-06-30T23:07:09.537Z,30.8
2018-06-30T23:08:12.003Z,30.8
2018-06-30T23:09:14.758Z,30.3
2018-06-30T23:10:17.520Z,30.8
2018-06-30T23:11:20.253Z,30.3
2018-06-30T23:12:22.742Z,30.3
2018-06-30T23:13:25.228Z,30.8
2018-06-30T23:14:27.957Z,30.8
2018-06-30T23:15:30.185Z,30.3
2018-06-30T23:16:32.649Z,30.3
2018-06-30T23:17:35.391Z,30.3
2018-06-30T23:18:38.135Z,30.8
2018-06-30T23:19:40.895Z,30.8
2018-06-30T23:20:43.657Z,30.3
2018-06-30T23:21:46.139Z,30.3
2018-06-30T23:22:48.873Z,30.3
2018-06-30T23:23:51.609Z,30.3
2018-06-30T23:24:54.517Z,30.3
2018-06-30T23:25:57.274Z,30.3
2018-06-30T23:27:00.024Z,30.3
2018-06-30T23:28:02.780Z,29.8
2018-06-30T23:29:05.270Z,30.3
2018-06-30T23:30:07.457Z,30.3
2018-06-30T23:31:10.218Z,30.3
2018-06-30T23:32:12.963Z,29.8
2018-06-30T23:33:15.434Z,29.8
2018-06-30T23:34:18.188Z,30.3
2018-06-30T23:35:20.692Z,30.3
2018-06-30T23:36:23.418Z,30.3
2018-06-30T23:37:26.158Z,30.3
2018-06-30T23:38:28.908Z,29.8
2018-06-30T23:39:31.648Z,29.8
2018-06-30T23:40:34.143Z,29.8
2018-06-30T23:41:36.885Z,29.8
2018-06-30T23:42:39.642Z,29.8
2018-06-30T23:43:42.151Z,29.8
2018-06-30T23:44:44.903Z,29.8
2018-06-30T23:45:47.651Z,29.8
2018-06-30T23:46:50.399Z,29.8
2018-06-30T23:47:53.149Z,29.8
2018-06-30T23:48:55.894Z,29.8
2018-06-30T23:49:58.358Z,29.8
2018-06-30T23:51:00.818Z,29.3
2018-06-30T23:52:03.586Z,29.8
2018-06-30T23:53:06.334Z,29.8
2018-06-30T23:54:09.076Z,29.8
2018-06-30T23:55:11.828Z,29.8
2018-06-30T23:56:14.584Z,29.8
2018-06-30T23:57:17.372Z,29.3
2018-06-30T23:58:20.114Z,29.8
2018-06-30T23:59:22.873Z,29.8
